Time;durP1;ratioP1;P1;durP2;ratioP2;P2;SDS_P1;SDS_P2;PMS_P1;PMS_P2;Temp;Humidity;BMP_temperature;BMP_pressure;BME280_temperature;BME280_humidity;BME280_pressure;Samples;Min_cycle;Max_cycle;Signal;HPM_P1;HPM_P2
2023/06/12 00:01:48;;;;;;;12.93;4.82;;;;;;;;;;5069454;27;92042;-83
2023/06/12 00:04:15;;;;;;;9.73;4.63;;;;;;;;;;5069740;27;92433;-84
2023/06/12 00:06:42;;;;;;;9.18;4.38;;;;;;;;;;5067647;27;92683;-85
2023/06/12 00:09:11;;;;;;;9.32;4.60;;;;;;;;;;5072647;27;92463;-84
2023/06/12 00:11:40;;;;;;;8.25;4.43;;;;;;;;;;5067207;27;92719;-82
2023/06/12 00:14:07;;;;;;;8.48;4.25;;;;;;;;;;5066359;27;92709;-83
2023/06/12 00:16:33;;;;;;;8.73;4.85;;;;;;;;;;5073825;27;92341;-84
2023/06/12 00:19:00;;;;;;;8.25;4.57;;;;;;;;;;5075169;27;94941;-84
2023/06/12 00:21:27;;;;;;;8.75;4.72;;;;;;;;;;5074641;27;95277;-84
2023/06/12 00:23:53;;;;;;;8.70;4.53;;;;;;;;;;5074867;27;92606;-84
2023/06/12 00:26:20;;;;;;;8.57;4.20;;;;;;;;;;5077531;27;92225;-84
2023/06/12 00:28:47;;;;;;;;;;;;;;;;;;5067055;27;92188;-84
2023/06/12 00:31:14;;;;;;;8.77;4.40;;;;;;;;;;5079379;27;116367;-82
2023/06/12 00:33:40;;;;;;;;;;;;;;;;;;5059767;27;95705;-83
2023/06/12 00:36:07;;;;;;;8.20;4.40;;;;;;;;;;5075169;27;92530;-82
2023/06/12 00:38:34;;;;;;;8.13;4.53;;;;;;;;;;5065836;27;94373;-83
2023/06/12 00:41:02;;;;;;;8.60;4.30;;;;;;;;;;5074351;27;93588;-84
2023/06/12 00:43:29;;;;;;;9.20;4.32;;;;;;;;;;5071319;27;94496;-84
2023/06/12 00:45:56;;;;;;;7.43;4.30;;;;;;;;;;5076912;27;92667;-84
2023/06/12 00:48:23;;;;;;;8.80;4.53;;;;;;;;;;5061475;27;92283;-84
2023/06/12 00:50:52;;;;;;;7.47;4.30;;;;;;;;;;5081072;27;94985;-84
2023/06/12 00:53:19;;;;;;;7.93;4.13;;;;;;;;;;5069340;27;92724;-83
2023/06/12 00:55:45;;;;;;;10.95;4.70;;;;;;;;;;5069389;27;92182;-84
2023/06/12 00:58:12;;;;;;;10.27;4.32;;;;;;;;;;5061852;27;92607;-83
2023/06/12 01:00:38;;;;;;;14.05;4.82;;;;;;;;;;5067558;27;94577;-85
2023/06/12 01:03:06;;;;;;;7.88;4.30;;;;;;;;;;5061185;27;92221;-85
2023/06/12 01:05:38;;;;;;;8.13;4.10;;;;;;;;;;5082382;27;99167;-85
2023/06/12 01:08:15;;;;;;;7.82;4.43;;;;;;;;;;5076648;27;94928;-83
2023/06/12 01:10:52;;;;;;;8.10;4.38;;;;;;;;;;5067666;27;95804;-83
2023/06/12 01:13:20;;;;;;;7.47;4.18;;;;;;;;;;5061340;27;94950;-84
2023/06/12 01:15:47;;;;;;;7.47;4.13;;;;;;;;;;5077581;27;92218;-84
2023/06/12 01:18:14;;;;;;;8.15;4.38;;;;;;;;;;5063083;27;94387;-83
2023/06/12 01:20:42;;;;;;;8.88;4.32;;;;;;;;;;5075083;27;93614;-83
2023/06/12 01:23:15;;;;;;;9.07;4.65;;;;;;;;;;5060311;27;92254;-83
2023/06/12 01:25:42;;;;;;;;;;;;;;;;;;5074128;27;92529;-83
2023/06/12 01:28:18;;;;;;;8.85;4.75;;;;;;;;;;5063618;27;91929;-83
2023/06/12 01:30:54;;;;;;;9.70;4.30;;;;;;;;;;5059381;27;95635;-83
2023/06/12 01:33:30;;;;;;;10.40;4.32;;;;;;;;;;5045087;27;97265;-84
2023/06/12 01:35:58;;;;;;;7.95;4.78;;;;;;;;;;5073718;27;92569;-84
2023/06/12 01:38:27;;;;;;;8.75;4.72;;;;;;;;;;5077836;27;95002;-84
2023/06/12 01:40:54;;;;;;;8.35;4.47;;;;;;;;;;5069383;27;94355;-84
2023/06/12 01:43:24;;;;;;;12.07;4.90;;;;;;;;;;5078882;27;92083;-85
2023/06/12 01:45:51;;;;;;;8.85;4.70;;;;;;;;;;5070103;27;92432;-84
2023/06/12 01:48:18;;;;;;;7.65;4.53;;;;;;;;;;5070727;27;95127;-85
2023/06/12 01:50:44;;;;;;;9.27;4.45;;;;;;;;;;5052012;27;94971;-86
2023/06/12 01:53:13;;;;;;;8.38;4.18;;;;;;;;;;5073031;27;92786;-86
2023/06/12 01:55:41;;;;;;;8.45;4.80;;;;;;;;;;5067713;27;94002;-86
2023/06/12 01:58:08;;;;;;;8.18;4.45;;;;;;;;;;5049506;27;95236;-86
2023/06/12 02:01:05;;;;;;;8.93;4.25;;;;;;;;;;5063007;27;92732;-86
2023/06/12 02:03:37;;;;;;;9.77;4.50;;;;;;;;;;5061877;27;93461;-86
2023/06/12 02:06:03;;;;;;;9.30;4.40;;;;;;;;;;5068272;27;95331;-83
2023/06/12 02:08:30;;;;;;;8.23;4.70;;;;;;;;;;5060967;27;92357;-83
2023/06/12 02:10:57;;;;;;;8.00;4.63;;;;;;;;;;5071307;27;92147;-81
2023/06/12 02:13:23;;;;;;;8.70;5.18;;;;;;;;;;5074424;27;92596;-81
2023/06/12 02:15:50;;;;;;;8.98;4.68;;;;;;;;;;5066463;27;92325;-81
2023/06/12 02:18:17;;;;;;;8.55;4.55;;;;;;;;;;5064105;27;94463;-81
2023/06/12 02:20:43;;;;;;;8.85;4.60;;;;;;;;;;5076455;27;94038;-81
2023/06/12 02:23:10;;;;;;;9.10;4.50;;;;;;;;;;5075653;27;94663;-81
2023/06/12 02:25:36;;;;;;;8.15;4.60;;;;;;;;;;5068085;27;97569;-81
2023/06/12 02:28:03;;;;;;;11.70;4.45;;;;;;;;;;5059774;27;95097;-81
2023/06/12 02:30:30;;;;;;;8.82;4.68;;;;;;;;;;5066048;27;92104;-82
2023/06/12 02:32:57;;;;;;;8.15;4.60;;;;;;;;;;5066467;27;92314;-82
2023/06/12 02:35:24;;;;;;;9.40;4.47;;;;;;;;;;5067988;27;92304;-82
2023/06/12 02:37:50;;;;;;;7.65;4.65;;;;;;;;;;5077056;27;92401;-82
2023/06/12 02:40:17;;;;;;;8.70;4.88;;;;;;;;;;5069303;27;91970;-81
2023/06/12 02:42:44;;;;;;;9.73;4.90;;;;;;;;;;5077380;27;92203;-81
2023/06/12 02:45:12;;;;;;;10.10;4.32;;;;;;;;;;5073038;27;95444;-83
2023/06/12 02:47:39;;;;;;;9.35;4.50;;;;;;;;;;5075581;27;95019;-83
2023/06/12 02:50:07;;;;;;;8.80;4.45;;;;;;;;;;5067495;27;92961;-85
2023/06/12 02:52:48;;;;;;;8.65;4.60;;;;;;;;;;5067076;27;92824;-85
2023/06/12 02:55:15;;;;;;;7.93;4.47;;;;;;;;;;5072066;27;95548;-84
2023/06/12 02:57:42;;;;;;;;;;;;;;;;;;5066164;27;94754;-86
2023/06/12 03:00:09;;;;;;;10.15;4.63;;;;;;;;;;5071252;27;95015;-87
2023/06/12 03:02:42;;;;;;;9.85;5.25;;;;;;;;;;5057417;27;92140;-87
2023/06/12 03:05:14;;;;;;;9.43;4.90;;;;;;;;;;5060096;27;95625;-86
2023/06/12 03:07:42;;;;;;;9.65;4.72;;;;;;;;;;5062801;27;94844;-86
2023/06/12 03:10:10;;;;;;;8.73;5.35;;;;;;;;;;5077080;27;92017;-87
2023/06/12 03:12:39;;;;;;;8.43;4.93;;;;;;;;;;5073301;27;96508;-87
2023/06/12 03:15:07;;;;;;;9.73;5.18;;;;;;;;;;5052204;27;95271;-85
2023/06/12 03:17:33;;;;;;;12.27;5.50;;;;;;;;;;5085109;27;93673;-85
2023/06/12 03:20:00;;;;;;;8.73;4.95;;;;;;;;;;5079091;27;92784;-84
2023/06/12 03:22:26;;;;;;;9.93;4.90;;;;;;;;;;5059097;27;92222;-85
2023/06/12 03:24:53;;;;;;;9.88;5.05;;;;;;;;;;5067396;27;93798;-85
2023/06/12 03:27:22;;;;;;;10.23;5.15;;;;;;;;;;5077123;27;92295;-84
2023/06/12 03:29:48;;;;;;;10.63;4.97;;;;;;;;;;5079413;27;91326;-83
2023/06/12 03:32:15;;;;;;;9.95;5.00;;;;;;;;;;5066663;27;94038;-84
2023/06/12 03:34:48;;;;;;;;;;;;;;;;;;5073941;27;95116;-83
2023/06/12 03:37:15;;;;;;;10.40;4.82;;;;;;;;;;5080423;27;94580;-84
2023/06/12 03:39:42;;;;;;;8.32;4.90;;;;;;;;;;5077751;27;95366;-84
2023/06/12 03:42:08;;;;;;;8.98;4.47;;;;;;;;;;5069159;27;92364;-84
2023/06/12 03:44:45;;;;;;;12.52;5.00;;;;;;;;;;5070398;27;94861;-84
2023/06/12 03:47:14;;;;;;;9.32;5.35;;;;;;;;;;5071994;27;95006;-83
2023/06/12 03:49:42;;;;;;;9.68;5.50;;;;;;;;;;5061591;27;92027;-84
2023/06/12 03:52:09;;;;;;;8.35;4.93;;;;;;;;;;5071729;27;92985;-85
2023/06/12 03:54:36;;;;;;;10.48;5.07;;;;;;;;;;5070907;27;94656;-86
2023/06/12 03:57:03;;;;;;;9.10;4.93;;;;;;;;;;5068029;27;92538;-86
2023/06/12 03:59:30;;;;;;;9.27;5.05;;;;;;;;;;5065592;27;95049;-84
2023/06/12 04:01:58;;;;;;;10.52;5.45;;;;;;;;;;5059174;27;94495;-84
2023/06/12 04:04:25;;;;;;;8.95;4.97;;;;;;;;;;5078283;27;95400;-84
2023/06/12 04:06:52;;;;;;;10.90;5.80;;;;;;;;;;5058445;27;95793;-83
2023/06/12 04:09:20;;;;;;;10.18;5.13;;;;;;;;;;5071351;27;92040;-83
2023/06/12 04:11:46;;;;;;;9.68;5.00;;;;;;;;;;5067357;27;94296;-83
2023/06/12 04:14:13;;;;;;;11.07;5.03;;;;;;;;;;5079109;27;92759;-80
2023/06/12 04:16:39;;;;;;;11.05;4.82;;;;;;;;;;5068546;27;91990;-84
2023/06/12 04:19:07;;;;;;;11.23;5.18;;;;;;;;;;5071696;27;92476;-83
2023/06/12 04:21:35;;;;;;;22.02;5.75;;;;;;;;;;5072955;27;99417;-81
2023/06/12 04:24:03;;;;;;;9.75;5.22;;;;;;;;;;5079959;27;94999;-81
2023/06/12 04:26:31;;;;;;;10.88;5.13;;;;;;;;;;5071589;27;97179;-82
2023/06/12 04:29:01;;;;;;;9.98;5.13;;;;;;;;;;5066596;27;92203;-82
2023/06/12 04:31:28;;;;;;;11.15;5.75;;;;;;;;;;5071769;27;92723;-82
2023/06/12 04:33:55;;;;;;;11.30;5.40;;;;;;;;;;5067961;27;95534;-82
2023/06/12 04:36:22;;;;;;;10.95;5.72;;;;;;;;;;5061452;27;92038;-81
2023/06/12 04:38:52;;;;;;;11.52;5.20;;;;;;;;;;5075038;27;95290;-82
2023/06/12 04:41:20;;;;;;;9.82;4.93;;;;;;;;;;5068651;27;95247;-82
2023/06/12 04:43:49;;;;;;;9.57;5.07;;;;;;;;;;5078080;27;91641;-82
2023/06/12 04:46:19;;;;;;;11.15;5.00;;;;;;;;;;5067634;27;95493;-82
2023/06/12 04:48:46;;;;;;;10.88;5.60;;;;;;;;;;5072218;27;92119;-82
2023/06/12 04:51:15;;;;;;;11.43;4.75;;;;;;;;;;5072129;27;96105;-82
2023/06/12 04:53:43;;;;;;;8.68;4.95;;;;;;;;;;5062836;27;95105;-83
2023/06/12 04:56:12;;;;;;;10.10;5.13;;;;;;;;;;5056807;27;93270;-82
2023/06/12 04:58:40;;;;;;;10.90;5.40;;;;;;;;;;5051198;27;95375;-83
2023/06/12 05:01:08;;;;;;;14.02;5.57;;;;;;;;;;5064392;27;95010;-83
2023/06/12 05:03:35;;;;;;;14.43;5.60;;;;;;;;;;5064281;27;92098;-83
2023/06/12 05:06:03;;;;;;;10.45;4.97;;;;;;;;;;5072223;27;95143;-83
2023/06/12 05:08:30;;;;;;;10.98;5.15;;;;;;;;;;5069006;27;91816;-83
2023/06/12 05:11:00;;;;;;;9.93;5.13;;;;;;;;;;5064373;27;94686;-84
2023/06/12 05:13:27;;;;;;;12.05;5.03;;;;;;;;;;5070254;27;95904;-83
2023/06/12 05:15:53;;;;;;;10.73;5.07;;;;;;;;;;5074748;27;94848;-83
2023/06/12 05:18:20;;;;;;;9.73;5.40;;;;;;;;;;5079896;27;97181;-83
2023/06/12 05:20:47;;;;;;;11.93;5.18;;;;;;;;;;5079512;27;99783;-84
2023/06/12 05:23:14;;;;;;;10.48;5.60;;;;;;;;;;5071234;27;92725;-83
2023/06/12 05:25:41;;;;;;;10.98;5.38;;;;;;;;;;5059427;27;94976;-84
2023/06/12 05:28:09;;;;;;;8.93;4.93;;;;;;;;;;5075797;27;92486;-83
2023/06/12 05:30:36;;;;;;;11.25;5.10;;;;;;;;;;5061884;27;95087;-83
2023/06/12 05:33:05;;;;;;;9.60;4.88;;;;;;;;;;5051324;27;94649;-83
2023/06/12 05:35:32;;;;;;;11.23;5.30;;;;;;;;;;5072573;27;92182;-82
2023/06/12 05:37:58;;;;;;;13.07;5.30;;;;;;;;;;5071089;27;95120;-84
2023/06/12 05:40:25;;;;;;;10.88;5.25;;;;;;;;;;5062083;27;96827;-85
2023/06/12 05:42:59;;;;;;;10.43;5.40;;;;;;;;;;5067111;27;93168;-85
2023/06/12 05:45:26;;;;;;;10.88;5.13;;;;;;;;;;5078510;27;94917;-85
2023/06/12 05:47:53;;;;;;;10.73;5.30;;;;;;;;;;5074867;27;95159;-85
2023/06/12 05:50:20;;;;;;;12.68;5.53;;;;;;;;;;5076007;27;94182;-84
2023/06/12 05:52:46;;;;;;;13.05;5.10;;;;;;;;;;5070930;27;93622;-85
2023/06/12 05:55:13;;;;;;;13.02;6.20;;;;;;;;;;5059620;27;92367;-85
2023/06/12 05:57:41;;;;;;;14.27;5.60;;;;;;;;;;5075166;27;94402;-85
2023/06/12 06:00:07;;;;;;;11.18;5.57;;;;;;;;;;5077115;27;92680;-84
2023/06/12 06:02:42;;;;;;;15.23;5.35;;;;;;;;;;5076862;27;92149;-83
2023/06/12 06:05:17;;;;;;;10.90;5.45;;;;;;;;;;5065611;27;94651;-83
2023/06/12 06:07:44;;;;;;;11.95;5.78;;;;;;;;;;5044595;27;95106;-83
2023/06/12 06:10:11;;;;;;;;;;;;;;;;;;5056637;27;92072;-85
2023/06/12 06:12:38;;;;;;;11.48;5.55;;;;;;;;;;5076296;27;121409;-82
2023/06/12 06:15:05;;;;;;;11.88;5.95;;;;;;;;;;5064195;27;92514;-83
2023/06/12 06:17:31;;;;;;;16.02;5.00;;;;;;;;;;5062795;27;92793;-82
2023/06/12 06:19:58;;;;;;;;;;;;;;;;;;5079644;27;96093;-83
2023/06/12 06:22:25;;;;;;;12.40;5.65;;;;;;;;;;5074659;27;91384;-82
2023/06/12 06:24:52;;;;;;;12.38;5.30;;;;;;;;;;5082664;27;98491;-79
2023/06/12 06:27:19;;;;;;;12.43;5.30;;;;;;;;;;5061248;27;95417;-81
2023/06/12 06:29:45;;;;;;;12.90;5.28;;;;;;;;;;5073212;27;94412;-82
2023/06/12 06:32:12;;;;;;;11.52;4.95;;;;;;;;;;5073621;27;96595;-82
2023/06/12 06:34:39;;;;;;;9.88;4.88;;;;;;;;;;5071336;27;92112;-82
2023/06/12 06:37:07;;;;;;;10.38;4.95;;;;;;;;;;5064263;27;99182;-85
2023/06/12 06:39:33;;;;;;;12.63;5.25;;;;;;;;;;5076858;27;97069;-85
2023/06/12 06:42:00;;;;;;;11.43;5.25;;;;;;;;;;5079901;27;92206;-85
2023/06/12 06:44:34;;;;;;;10.07;4.95;;;;;;;;;;5081546;27;94984;-85
2023/06/12 06:47:02;;;;;;;11.07;5.65;;;;;;;;;;5073406;27;92359;-85
2023/06/12 06:49:30;;;;;;;12.77;4.95;;;;;;;;;;5059688;27;92216;-85
2023/06/12 06:51:57;;;;;;;10.70;5.22;;;;;;;;;;5072588;27;95055;-83
2023/06/12 06:54:24;;;;;;;11.55;5.00;;;;;;;;;;5075830;27;97492;-82
2023/06/12 06:56:51;;;;;;;;;;;;;;;;;;5075388;27;97559;-84
2023/06/12 06:59:17;;;;;;;9.98;4.70;;;;;;;;;;5097250;27;107574;-83
2023/06/12 07:01:44;;;;;;;12.02;5.30;;;;;;;;;;5078043;27;92637;-83
2023/06/12 07:04:11;;;;;;;9.85;5.10;;;;;;;;;;5073370;27;94746;-83
2023/06/12 07:06:38;;;;;;;10.63;4.82;;;;;;;;;;5066322;27;95301;-83
2023/06/12 07:09:05;;;;;;;10.57;5.22;;;;;;;;;;5070903;27;92170;-83
2023/06/12 07:11:34;;;;;;;9.18;4.97;;;;;;;;;;5048847;27;99226;-83
2023/06/12 07:14:01;;;;;;;11.07;5.38;;;;;;;;;;5068927;27;94843;-83
2023/06/12 07:16:28;;;;;;;9.55;4.80;;;;;;;;;;5072857;27;92492;-83
2023/06/12 07:18:54;;;;;;;10.52;5.28;;;;;;;;;;5065754;27;96096;-83
2023/06/12 07:21:21;;;;;;;12.57;5.32;;;;;;;;;;5070740;27;92360;-82
2023/06/12 07:23:51;;;;;;;11.30;5.93;;;;;;;;;;5066559;27;95342;-83
2023/06/12 07:26:17;;;;;;;10.68;5.65;;;;;;;;;;5060406;27;95226;-83
2023/06/12 07:28:58;;;;;;;11.15;5.10;;;;;;;;;;5095718;27;92533;-83
2023/06/12 07:31:28;;;;;;;9.85;5.68;;;;;;;;;;5078287;27;95138;-83
2023/06/12 07:33:55;;;;;;;;;;;;;;;;;;5059102;27;94874;-81
2023/06/12 07:36:22;;;;;;;13.88;5.50;;;;;;;;;;5071262;27;98394;-81
2023/06/12 07:38:49;;;;;;;14.65;5.60;;;;;;;;;;5058570;27;94600;-82
2023/06/12 07:41:16;;;;;;;10.93;5.32;;;;;;;;;;5077164;27;92184;-83
2023/06/12 07:43:42;;;;;;;9.60;5.18;;;;;;;;;;5072650;27;94891;-82
2023/06/12 07:46:09;;;;;;;12.35;5.22;;;;;;;;;;5066489;27;92790;-80
2023/06/12 07:48:35;;;;;;;10.30;5.20;;;;;;;;;;5067670;27;92407;-79
2023/06/12 07:51:02;;;;;;;10.05;4.85;;;;;;;;;;5070638;27;95246;-78
2023/06/12 07:53:30;;;;;;;11.27;5.22;;;;;;;;;;5070005;27;95284;-78
2023/06/12 07:56:08;;;;;;;8.98;4.90;;;;;;;;;;5073347;27;92023;-78
2023/06/12 07:58:36;;;;;;;10.05;5.45;;;;;;;;;;5077572;27;94723;-80
2023/06/12 08:01:05;;;;;;;10.38;4.88;;;;;;;;;;5081459;27;91481;-79
2023/06/12 08:03:39;;;;;;;9.32;4.95;;;;;;;;;;5060320;27;98231;-80
2023/06/12 08:06:11;;;;;;;10.73;5.10;;;;;;;;;;5060950;27;94586;-79
2023/06/12 08:08:46;;;;;;;9.60;5.03;;;;;;;;;;5064866;27;94609;-80
2023/06/12 08:11:14;;;;;;;12.55;4.78;;;;;;;;;;5067956;27;97157;-80
2023/06/12 08:13:44;;;;;;;9.13;4.50;;;;;;;;;;5066621;27;94949;-81
2023/06/12 08:16:12;;;;;;;10.00;4.70;;;;;;;;;;5080210;27;92234;-82
2023/06/12 08:18:38;;;;;;;9.70;4.43;;;;;;;;;;5063525;27;92593;-82
2023/06/12 08:21:06;;;;;;;8.68;4.55;;;;;;;;;;5063021;27;94955;-83
2023/06/12 08:23:35;;;;;;;8.77;4.45;;;;;;;;;;5060456;27;96510;-80
2023/06/12 08:26:04;;;;;;;8.75;4.60;;;;;;;;;;5080696;27;91890;-80
2023/06/12 08:28:35;;;;;;;9.35;4.70;;;;;;;;;;5070613;27;92445;-82
2023/06/12 08:31:02;;;;;;;8.73;4.60;;;;;;;;;;5074849;27;95153;-81
2023/06/12 08:33:28;;;;;;;8.65;4.53;;;;;;;;;;5065416;27;95171;-79
2023/06/12 08:35:55;;;;;;;8.35;4.28;;;;;;;;;;5080245;27;92400;-79
2023/06/12 08:38:22;;;;;;;7.63;4.38;;;;;;;;;;5053893;27;94028;-78
2023/06/12 08:40:52;;;;;;;8.85;4.63;;;;;;;;;;5057718;27;92830;-78
2023/06/12 08:43:19;;;;;;;8.07;4.43;;;;;;;;;;5063631;27;92779;-79
2023/06/12 08:45:46;;;;;;;;;;;;;;;;;;5058561;27;94811;-80
2023/06/12 08:48:15;;;;;;;9.38;4.50;;;;;;;;;;5071719;27;109259;-81
2023/06/12 08:50:45;;;;;;;8.25;4.60;;;;;;;;;;5069338;27;93545;-80
2023/06/12 08:53:12;;;;;;;8.07;4.38;;;;;;;;;;5064848;27;93178;-79
2023/06/12 08:55:42;;;;;;;8.10;4.20;;;;;;;;;;5074339;27;92181;-79
2023/06/12 08:58:09;;;;;;;8.15;4.22;;;;;;;;;;5066217;27;95175;-78
2023/06/12 09:00:36;;;;;;;8.57;4.53;;;;;;;;;;5067781;27;93707;-78
2023/06/12 09:03:06;;;;;;;8.32;4.68;;;;;;;;;;5064337;27;93305;-78
2023/06/12 09:05:35;;;;;;;8.60;4.60;;;;;;;;;;5070859;27;96697;-78
2023/06/12 09:08:05;;;;;;;8.27;4.80;;;;;;;;;;5063053;27;92362;-77
2023/06/12 09:10:32;;;;;;;8.43;4.68;;;;;;;;;;5060059;27;93327;-78
2023/06/12 09:13:05;;;;;;;8.82;4.53;;;;;;;;;;5065111;27;92615;-78
2023/06/12 09:15:32;;;;;;;8.18;4.57;;;;;;;;;;5072948;27;91811;-78
2023/06/12 09:17:58;;;;;;;9.48;4.85;;;;;;;;;;5069061;27;92065;-78
2023/06/12 09:20:27;;;;;;;7.70;4.38;;;;;;;;;;5061291;27;93030;-78
2023/06/12 09:23:08;;;;;;;9.90;4.80;;;;;;;;;;5059356;27;94443;-78
2023/06/12 09:25:41;;;;;;;9.52;5.03;;;;;;;;;;5076222;27;94864;-79
2023/06/12 09:28:22;;;;;;;9.57;4.75;;;;;;;;;;5074254;27;93946;-79
2023/06/12 09:30:49;;;;;;;7.95;4.57;;;;;;;;;;5067318;27;92460;-78
2023/06/12 09:33:15;;;;;;;;;;;;;;;;;;5075359;27;93229;-78
2023/06/12 09:35:49;;;;;;;9.27;4.55;;;;;;;;;;5063397;27;92184;-78
2023/06/12 09:38:15;;;;;;;;;;;;;;;;;;5062596;27;94311;-78
2023/06/12 09:40:42;;;;;;;10.02;4.50;;;;;;;;;;5069607;27;114458;-79
2023/06/12 09:43:14;;;;;;;9.18;4.65;;;;;;;;;;5068543;27;92913;-78
2023/06/12 09:45:47;;;;;;;9.65;4.57;;;;;;;;;;5082251;27;92707;-78
2023/06/12 09:48:14;;;;;;;7.40;4.53;;;;;;;;;;5074443;27;94908;-78
2023/06/12 09:50:40;;;;;;;7.10;4.20;;;;;;;;;;5085762;27;92186;-78
2023/06/12 09:53:09;;;;;;;7.70;4.63;;;;;;;;;;5069905;27;94613;-78
2023/06/12 09:55:37;;;;;;;8.02;4.35;;;;;;;;;;5069302;27;92076;-77
2023/06/12 09:58:05;;;;;;;8.98;4.13;;;;;;;;;;5073249;27;94410;-79
2023/06/12 10:00:31;;;;;;;16.38;5.10;;;;;;;;;;5067966;27;92560;-79
2023/06/12 10:03:04;;;;;;;8.95;4.55;;;;;;;;;;5074973;27;92089;-80
2023/06/12 10:05:35;;;;;;;9.38;4.65;;;;;;;;;;5069045;27;92777;-79
2023/06/12 10:08:05;;;;;;;9.30;4.25;;;;;;;;;;5076850;27;92794;-79
2023/06/12 10:10:35;;;;;;;8.05;4.45;;;;;;;;;;5067203;27;92140;-79
2023/06/12 10:13:02;;;;;;;6.80;3.90;;;;;;;;;;5068154;27;97135;-78
2023/06/12 10:15:28;;;;;;;;;;;;;;;;;;5068916;27;92247;-78
2023/06/12 10:17:55;;;;;;;8.88;4.25;;;;;;;;;;5069104;27;117890;-79
2023/06/12 10:20:22;;;;;;;8.88;4.00;;;;;;;;;;5066289;27;93417;-77
2023/06/12 10:22:50;;;;;;;8.98;4.18;;;;;;;;;;5073457;27;92685;-78
2023/06/12 10:25:17;;;;;;;9.13;4.55;;;;;;;;;;5083223;27;92451;-78
2023/06/12 10:27:43;;;;;;;8.43;4.22;;;;;;;;;;5071213;27;92742;-78
2023/06/12 10:30:11;;;;;;;9.68;4.63;;;;;;;;;;5074707;27;91678;-80
2023/06/12 10:32:40;;;;;;;10.52;4.40;;;;;;;;;;5077144;27;92077;-79
2023/06/12 10:35:07;;;;;;;8.68;4.07;;;;;;;;;;5080726;27;92128;-79
2023/06/12 10:37:33;;;;;;;10.70;4.63;;;;;;;;;;5080491;27;97185;-80
2023/06/12 10:40:07;;;;;;;12.00;4.30;;;;;;;;;;5081973;27;95165;-79
2023/06/12 10:42:44;;;;;;;9.00;4.20;;;;;;;;;;5082833;27;92390;-79
2023/06/12 10:45:18;;;;;;;8.13;4.28;;;;;;;;;;5069091;27;93125;-79
2023/06/12 10:48:03;;;;;;;8.68;4.10;;;;;;;;;;5066173;27;93164;-79
2023/06/12 10:50:34;;;;;;;7.97;3.70;;;;;;;;;;5081834;27;92187;-79
2023/06/12 10:53:02;;;;;;;8.05;3.95;;;;;;;;;;5080003;27;93038;-80
2023/06/12 10:55:35;;;;;;;7.85;4.10;;;;;;;;;;5082362;27;92793;-80
2023/06/12 10:58:03;;;;;;;;;;;;;;;;;;5068018;27;91983;-80
2023/06/12 11:00:31;;;;;;;6.93;3.80;;;;;;;;;;5065414;27;94243;-81
2023/06/12 11:02:59;;;;;;;8.90;3.90;;;;;;;;;;5073152;27;94807;-81
2023/06/12 11:05:27;;;;;;;7.45;3.90;;;;;;;;;;5081417;27;94790;-80
2023/06/12 11:07:56;;;;;;;9.40;3.88;;;;;;;;;;5075426;27;92095;-79
2023/06/12 11:10:22;;;;;;;7.93;4.10;;;;;;;;;;5073913;27;92065;-79
2023/06/12 11:12:51;;;;;;;9.30;3.65;;;;;;;;;;5065915;27;93340;-79
2023/06/12 11:15:21;;;;;;;9.93;3.60;;;;;;;;;;5073710;27;93640;-79
2023/06/12 11:17:48;;;;;;;11.48;4.28;;;;;;;;;;5078741;27;92843;-79
2023/06/12 11:20:18;;;;;;;9.68;3.60;;;;;;;;;;5075774;27;93228;-80
2023/06/12 11:22:46;;;;;;;8.00;3.40;;;;;;;;;;5066908;27;92253;-79
2023/06/12 11:25:13;;;;;;;7.80;3.22;;;;;;;;;;5070332;27;93266;-79
2023/06/12 11:27:41;;;;;;;6.90;2.97;;;;;;;;;;5068243;27;95874;-79
2023/06/12 11:30:08;;;;;;;7.53;3.10;;;;;;;;;;5071732;27;93187;-80
2023/06/12 11:32:56;;;;;;;8.80;3.45;;;;;;;;;;5071393;27;93286;-79
2023/06/12 11:35:23;;;;;;;;;;;;;;;;;;5074623;27;92942;-81
2023/06/12 11:37:50;;;;;;;7.93;2.85;;;;;;;;;;5076762;27;104409;-80
2023/06/12 11:40:19;;;;;;;7.20;2.88;;;;;;;;;;5068137;27;94960;-80
2023/06/12 11:42:47;;;;;;;6.82;2.70;;;;;;;;;;5074232;27;92132;-80
2023/06/12 11:45:14;;;;;;;7.18;2.95;;;;;;;;;;5069559;27;92453;-80
2023/06/12 11:47:42;;;;;;;6.95;2.80;;;;;;;;;;5066463;27;92786;-80
2023/06/12 11:50:12;;;;;;;6.38;2.97;;;;;;;;;;5064416;27;92328;-80
2023/06/12 11:52:40;;;;;;;6.00;2.78;;;;;;;;;;5066532;27;94499;-80
2023/06/12 11:55:26;;;;;;;5.45;2.50;;;;;;;;;;5075226;27;95088;-79
2023/06/12 11:57:55;;;;;;;4.72;2.22;;;;;;;;;;5068142;27;92843;-78
2023/06/12 12:00:22;;;;;;;5.65;2.60;;;;;;;;;;5067464;27;93353;-78
2023/06/12 12:02:53;;;;;;;;;;;;;;;;;;5065157;27;92315;-76
2023/06/12 12:05:23;;;;;;;7.30;2.50;;;;;;;;;;5063873;27;92798;-79
2023/06/12 12:07:55;;;;;;;5.70;2.75;;;;;;;;;;5064706;27;93179;-80
2023/06/12 12:10:23;;;;;;;6.05;2.50;;;;;;;;;;5068644;27;91438;-78
2023/06/12 12:12:51;;;;;;;5.85;2.67;;;;;;;;;;5066185;27;92301;-79
2023/06/12 12:15:20;;;;;;;5.35;2.65;;;;;;;;;;5072157;27;92757;-80
2023/06/12 12:17:48;;;;;;;4.68;2.45;;;;;;;;;;5063019;27;94849;-79
2023/06/12 12:20:21;;;;;;;5.57;2.70;;;;;;;;;;5073839;27;94739;-78
2023/06/12 12:22:52;;;;;;;6.43;2.67;;;;;;;;;;5070985;27;92644;-78
2023/06/12 12:25:21;;;;;;;7.57;3.13;;;;;;;;;;5065587;27;92466;-80
2023/06/12 12:27:50;;;;;;;9.93;4.07;;;;;;;;;;5065130;27;92628;-80
2023/06/12 12:30:18;;;;;;;6.93;3.92;;;;;;;;;;5036845;27;92843;-79
2023/06/12 12:32:46;;;;;;;7.75;3.92;;;;;;;;;;5067758;27;93744;-78
2023/06/12 12:35:14;;;;;;;9.50;3.80;;;;;;;;;;5063845;27;92512;-79
2023/06/12 12:37:44;;;;;;;7.55;3.80;;;;;;;;;;5070725;27;94158;-78
2023/06/12 12:40:13;;;;;;;8.13;4.55;;;;;;;;;;5061786;27;92572;-78
2023/06/12 12:42:44;;;;;;;8.57;4.10;;;;;;;;;;5064491;27;95211;-79
2023/06/12 12:45:11;;;;;;;7.55;4.28;;;;;;;;;;5073605;27;92608;-77
2023/06/12 12:47:41;;;;;;;6.88;3.83;;;;;;;;;;5065077;27;95572;-77
2023/06/12 12:50:08;;;;;;;8.07;4.53;;;;;;;;;;5079123;27;92287;-79
2023/06/12 12:52:46;;;;;;;10.70;4.15;;;;;;;;;;5073699;27;93421;-78
2023/06/12 12:55:15;;;;;;;10.10;4.13;;;;;;;;;;5073905;27;93162;-79
2023/06/12 12:57:43;;;;;;;6.95;3.85;;;;;;;;;;5074569;27;93394;-79
2023/06/12 13:00:12;;;;;;;7.68;4.28;;;;;;;;;;5068431;27;93027;-79
2023/06/12 13:02:40;;;;;;;9.15;4.43;;;;;;;;;;5070482;27;92732;-78
2023/06/12 13:05:07;;;;;;;7.68;4.07;;;;;;;;;;5043041;27;92676;-78
2023/06/12 13:07:36;;;;;;;8.38;4.50;;;;;;;;;;5066391;27;96727;-77
2023/06/12 13:10:04;;;;;;;7.43;4.05;;;;;;;;;;5067383;27;92582;-77
2023/06/12 13:12:30;;;;;;;7.70;4.70;;;;;;;;;;5066984;27;92694;-78
2023/06/12 13:14:57;;;;;;;7.85;4.20;;;;;;;;;;5065935;27;93186;-78
2023/06/12 13:17:23;;;;;;;8.15;4.28;;;;;;;;;;5071375;27;92493;-79
2023/06/12 13:19:53;;;;;;;7.60;4.57;;;;;;;;;;5064873;27;93567;-79
2023/06/12 13:22:20;;;;;;;9.25;4.47;;;;;;;;;;5073355;27;93056;-78
2023/06/12 13:24:47;;;;;;;8.13;4.43;;;;;;;;;;5058690;27;92220;-77
2023/06/12 13:27:13;;;;;;;8.15;4.18;;;;;;;;;;5045561;27;92945;-78
2023/06/12 13:29:40;;;;;;;8.13;4.47;;;;;;;;;;5070188;27;93175;-78
2023/06/12 13:32:07;;;;;;;8.57;4.88;;;;;;;;;;5055844;27;95069;-79
2023/06/12 13:34:34;;;;;;;8.30;4.78;;;;;;;;;;5059374;27;93137;-79
2023/06/12 13:37:01;;;;;;;10.48;5.25;;;;;;;;;;5071176;27;92712;-79
2023/06/12 13:39:27;;;;;;;7.97;4.80;;;;;;;;;;5057117;27;94273;-78
2023/06/12 13:41:56;;;;;;;8.45;4.78;;;;;;;;;;5057733;27;92842;-78
2023/06/12 13:44:22;;;;;;;8.00;4.75;;;;;;;;;;5056804;27;92234;-78
2023/06/12 13:46:49;;;;;;;8.43;4.53;;;;;;;;;;5077445;27;92451;-78
2023/06/12 13:49:15;;;;;;;8.55;4.85;;;;;;;;;;5069671;27;92281;-79
2023/06/12 13:51:42;;;;;;;7.45;4.30;;;;;;;;;;5047583;27;92499;-77
2023/06/12 13:54:09;;;;;;;7.82;4.60;;;;;;;;;;5067377;27;92706;-78
2023/06/12 13:56:36;;;;;;;7.70;4.50;;;;;;;;;;5055975;27;94610;-78
2023/06/12 13:59:02;;;;;;;9.23;4.68;;;;;;;;;;5058004;27;95082;-78
2023/06/12 14:01:29;;;;;;;7.97;4.38;;;;;;;;;;5058076;27;93072;-78
2023/06/12 14:03:56;;;;;;;7.53;4.32;;;;;;;;;;5060434;27;92494;-78
2023/06/12 14:06:23;;;;;;;8.13;4.70;;;;;;;;;;5063638;27;92777;-77
2023/06/12 14:08:50;;;;;;;8.45;4.95;;;;;;;;;;5061991;27;92790;-77
2023/06/12 14:11:20;;;;;;;8.93;4.80;;;;;;;;;;5061462;27;93642;-78
2023/06/12 14:13:47;;;;;;;8.70;4.60;;;;;;;;;;5056156;27;92825;-78
2023/06/12 14:16:13;;;;;;;8.30;4.40;;;;;;;;;;5056250;27;92676;-78
2023/06/12 14:18:40;;;;;;;10.52;4.30;;;;;;;;;;5061154;27;92474;-79
2023/06/12 14:21:08;;;;;;;8.18;4.40;;;;;;;;;;5036540;27;96657;-78
2023/06/12 14:23:34;;;;;;;8.18;4.60;;;;;;;;;;5056710;27;92604;-78
2023/06/12 14:26:01;;;;;;;7.40;4.30;;;;;;;;;;5057643;27;92567;-78
2023/06/12 14:28:28;;;;;;;7.63;4.30;;;;;;;;;;5064335;27;93306;-78
2023/06/12 14:30:55;;;;;;;8.07;4.30;;;;;;;;;;5062087;27;93949;-78
2023/06/12 14:33:21;;;;;;;8.95;4.72;;;;;;;;;;5071704;27;92492;-79
2023/06/12 14:35:48;;;;;;;;;;;;;;;;;;5069442;27;92554;-78
2023/06/12 14:38:14;;;;;;;7.57;4.47;;;;;;;;;;5059721;27;115131;-78
2023/06/12 14:40:41;;;;;;;8.07;4.43;;;;;;;;;;5071222;27;92711;-79
2023/06/12 14:43:07;;;;;;;7.50;4.00;;;;;;;;;;5061502;27;95540;-78
2023/06/12 14:45:34;;;;;;;6.90;4.22;;;;;;;;;;5041119;27;96223;-79
2023/06/12 14:48:00;;;;;;;7.68;4.20;;;;;;;;;;5061221;27;93037;-78
2023/06/12 14:50:27;;;;;;;8.10;4.22;;;;;;;;;;5065863;27;92525;-79